Lander, WY

3:10 PM MDT on July 23, 2014 (GMT -0600)
Hunt (KLND) Elev 5558 ft | 42.82 °N, 108.73 °W | Change Station
Active Advisory: Fire Weather Warning

Current weather conditions updated 17 minutes ago

Clear
Clear
96 °F
Feels Like 96 °F
N
7
Wind Variable Wind from ENE

Today is forecast to be nearly the same temperature as yesterday.

Today
High -- | Low -- °F
--% Chance of Precip.
Yesterday
High -- | Low -- °F
Precip. -- in
5:57 AM 8:44 PM
Waning Crescent, 8% visible
Pressure 29.91 in
Visibility 10.0 miles
Clouds Clear
Dew Point 43 °F
Humidity 16%
Rainfall 0.00 in
Snow Depth 0 in
UV 11 out of 12
Pollen 6.50 out of 12
Air Quality Not available.
Flu Activity Not available.
METAR KLND 232053Z AUTO 06006KT 10SM CLR 36/06 A3015 RMK AO2 SLP126 T03560061 58029 TSNO

More Conditions Fewer Conditions

Pressure 29.91 in
Visibility 10.0 miles
Clouds Clear
Dew Point 43 °F
Humidity 16%
Rainfall 0.00 in
Snow Depth 0 in
UV 11 out of 12
Pollen 6.50 out of 12
Air Quality Not available.
Flu Activity Not available.
METAR KLND 232053Z AUTO 06006KT 10SM CLR 36/06 A3015 RMK AO2 SLP126 T03560061 58029 TSNO

More Conditions Fewer Conditions

10-Day Weather Forecast

Almanac

Astronomy

Jul. 23, 2014 Rise Set
Actual Time 5:57 AM MDT 8:44 PM MDT
Civil Twilight 5:24 AM MDT 9:17 PM MDT
Nautical Twilight 4:42 AM MDT 9:59 PM MDT
Astronomical Twilight 3:54 AM MDT 10:46 PM MDT
Moon 3:19 AM MDT 6:15 PM MDT
Length of Visible Light 15h 53m
Length of Day
14h 47m
Tomorrow will be 1m 53s shorter.
Waning Crescent, 8% of the Moon is Illuminated
Today
Waning Crescent
Jul 26
New
Aug 3
First Quarter
Aug 10
Full
Aug 17
Last Quarter

Today's Extremes

State Highs State Lows

Community

WunderPhotos

Upload Photos

1,736,782 photos uploaded!

Nearby

Snow Depth

Station Depth Elevation
Townsend Creek 0 in 8700 ft
Big Sandy Opening 0 in 9080 ft
Gunsight Pass 2 in 9820 ft
Kendall R.S. 0 in 7740 ft
Loomis Park 0 in 8240 ft

Earthquake Activity

City Distance Mag. Time & Date
No recent earthquake activity has been reported nearby.
Minimum magnitude displayed is 2.5.

Coastal Water Temperatures

Place Temperature
No Stations Reporting

Nearby Weather Stations

Station Location Temp. Heat Index Dew Point Humidity Wind Precip. Elev Updated Type
HADS LITTLE WIND RIVER NEAR RIVERTON WY, Saint Stephens, WY 88 °F 85 °F - - North  at  - 0.00 in / hr 4900 ft 2:15 PM MDT MADIS
Riverton, WY 94.3 °F 92 °F 52 °F 24% WNW  at  0.0 mph - / hr 5405 ft 3:01 PM MDT Normal
Logan Park, Riverton, WY 94.0 °F 91 °F 50 °F 23% WNW  at  0.0 mph 0.00 in / hr 4984 ft 3:10 PM MDT Rapid Fire
HADS SOUTH PASS CITY 3 NNE WY, Lander, WY 82 °F 80 °F - - North  at  - 0.00 in / hr 8540 ft 2:00 PM MDT MADIS

Show More Stations Show Fewer Stations